MET'MAP v2.0
soon released !

Expected late october,
this new version will be
more efficient, smarter,
and hosted on a brand new
server x3 powerfull...
...and still free !


Not compatible ?
Try the mobile version !

LOG IN : | Subscribe | Disclaimer | Who is Orbifly ? |
ICAO code :

TAF - EPLL Lodz - 02 Apr 2020 14:36 UTC - Data Source NOAA   


- Airport Elevation : 604 ft
- IATA code : LCJ
- No reported NOTAMs.


EPLL - Lodz

Latest METAR recorded : 2015/08/11 08:00 EPLL 110800Z 10006KT 060V130 CAVOK 29/14 Q1016
TAF TAF EPLL
Valid from the 02 at 12:00 until the 03 at 12:00 UTC


021130Z 0212/0312 25013KT 9999 BKN040
PROB40
TEMPO 0212/0215 26015G25KT
BECMG 0215/0218 20010KT
BECMG 0303/0306 27013KT
TEMPO 0305/0308 -RA BKN014
TEMPO 0308/0312 27017G30KT -SHRA BKN035CB

Source NOAA


MET'MAP, your aeronautical weather chart ! - Copyright ORBIFLY December 2007

Programming & Development : Alexandra Zaïnal
Co-Developer : Marc-Olivier Méhu
Technical & hardware support : Manuel Goepfert
Concept & Financing : Baudouin d'Aumeries